Time;durP1;ratioP1;P1;durP2;ratioP2;P2;SDS_P1;SDS_P2;PMS_P1;PMS_P2;Temp;Humidity;BMP_temperature;BMP_pressure;BME280_temperature;BME280_humidity;BME280_pressure;Samples;Min_cycle;Max_cycle;Signal;HPM_P1;HPM_P2
2022/05/25 00:01:23;;;;;;;11.17;5.30;;;;;;;;;;4944052;28;20825;-43
2022/05/25 00:03:49;;;;;;;9.47;5.43;;;;;;;;;;4939151;28;20862;-43
2022/05/25 00:06:16;;;;;;;11.97;5.27;;;;;;;;;;4942939;28;20170;-43
2022/05/25 00:08:44;;;;;;;11.40;5.20;;;;;;;;;;4944654;28;20225;-43
2022/05/25 00:11:10;;;;;;;9.70;5.10;;;;;;;;;;4941967;28;20171;-43
2022/05/25 00:13:37;;;;;;;10.87;5.83;;;;;;;;;;4936335;28;21502;-43
2022/05/25 00:16:04;;;;;;;9.90;5.43;;;;;;;;;;4940766;28;20206;-43
2022/05/25 00:18:30;;;;;;;11.37;5.40;;;;;;;;;;4941733;28;20175;-43
2022/05/25 00:20:57;;;;;;;9.27;4.77;;;;;;;;;;4940903;28;20189;-43
2022/05/25 00:23:23;;;;;;;10.53;5.10;;;;;;;;;;4939809;28;20765;-43
2022/05/25 00:25:49;;;;;;;11.33;5.20;;;;;;;;;;4926310;28;20371;-43
2022/05/25 00:28:16;;;;;;;9.27;5.80;;;;;;;;;;4939652;28;20735;-43
2022/05/25 00:30:43;;;;;;;12.43;5.40;;;;;;;;;;4938501;28;20851;-43
2022/05/25 00:33:10;;;;;;;8.87;5.57;;;;;;;;;;4940234;28;20175;-43
2022/05/25 00:35:37;;;;;;;12.30;5.60;;;;;;;;;;4941122;28;20248;-43
2022/05/25 00:38:04;;;;;;;10.57;5.10;;;;;;;;;;4939119;28;20182;-43
2022/05/25 00:40:30;;;;;;;13.10;6.00;;;;;;;;;;4939551;28;20185;-43
2022/05/25 00:42:56;;;;;;;7.90;5.13;;;;;;;;;;4941857;28;20351;-43
2022/05/25 00:45:22;;;;;;;8.60;5.20;;;;;;;;;;4938378;28;20293;-43
2022/05/25 00:47:49;;;;;;;12.03;5.50;;;;;;;;;;4939431;28;20221;-41
2022/05/25 00:50:17;;;;;;;17.97;5.73;;;;;;;;;;4941381;28;20171;-43
2022/05/25 00:52:45;;;;;;;14.33;5.83;;;;;;;;;;4940333;28;20186;-44
2022/05/25 00:55:13;;;;;;;10.70;5.57;;;;;;;;;;4941671;28;20262;-42
2022/05/25 00:57:42;;;;;;;13.13;5.93;;;;;;;;;;4938940;28;20194;-43
2022/05/25 01:00:13;;;;;;;10.23;5.33;;;;;;;;;;4938624;28;20179;-43
2022/05/25 01:02:40;;;;;;;15.93;6.03;;;;;;;;;;4937312;28;20191;-43
2022/05/25 01:05:07;;;;;;;12.37;6.03;;;;;;;;;;4937346;28;20211;-43
2022/05/25 01:07:36;;;;;;;13.37;6.47;;;;;;;;;;4947669;28;20260;-43
2022/05/25 01:10:32;;;;;;;10.77;5.90;;;;;;;;;;4941984;28;20167;-43
2022/05/25 01:13:01;;;;;;;12.60;6.50;;;;;;;;;;4856502;28;20644;-43
2022/05/25 01:15:42;;;;;;;13.63;6.83;;;;;;;;;;4936250;28;20186;-42
2022/05/25 01:18:27;;;;;;;12.03;7.10;;;;;;;;;;4912282;28;20650;-43
2022/05/25 01:20:53;;;;;;;13.27;6.93;;;;;;;;;;4937950;28;20179;-43
2022/05/25 01:23:38;;;;;;;15.13;6.73;;;;;;;;;;4944423;28;20175;-43
2022/05/25 01:26:04;;;;;;;10.47;6.57;;;;;;;;;;4942812;28;20187;-43
2022/05/25 01:28:36;;;;;;;11.60;6.30;;;;;;;;;;4938230;28;20274;-43
2022/05/25 01:31:06;;;;;;;13.33;7.10;;;;;;;;;;4937207;28;20189;-42
2022/05/25 01:33:35;;;;;;;13.53;6.47;;;;;;;;;;4939727;28;20395;-42
2022/05/25 01:36:01;;;;;;;10.53;6.20;;;;;;;;;;4944352;28;20614;-43
2022/05/25 01:38:40;;;;;;;11.63;6.17;;;;;;;;;;4940089;28;20178;-42
2022/05/25 01:41:15;;;;;;;11.87;6.23;;;;;;;;;;4940519;28;20309;-43
2022/05/25 01:43:51;;;;;;;10.20;6.27;;;;;;;;;;4932915;28;20293;-43
2022/05/25 01:46:22;;;;;;;13.50;6.67;;;;;;;;;;4941497;28;20900;-43
2022/05/25 01:48:50;;;;;;;12.13;6.23;;;;;;;;;;4937083;28;20589;-43
2022/05/25 01:51:25;;;;;;;9.53;6.17;;;;;;;;;;4933381;28;20453;-43
2022/05/25 01:53:53;;;;;;;11.37;6.80;;;;;;;;;;4939528;28;20979;-43
2022/05/25 01:56:21;;;;;;;13.53;6.43;;;;;;;;;;4941341;28;20661;-43
2022/05/25 01:58:48;;;;;;;10.93;6.20;;;;;;;;;;4943379;28;20288;-43
2022/05/25 02:01:14;;;;;;;10.70;6.03;;;;;;;;;;4940882;28;20190;-43
2022/05/25 02:06:33;;;;;;;10.70;6.70;;;;;;;;;;4939482;28;20265;-43
2022/05/25 02:09:11;;;;;;;11.73;6.03;;;;;;;;;;4941431;28;20208;-43
2022/05/25 02:11:42;;;;;;;10.13;6.53;;;;;;;;;;4943886;28;20189;-43
2022/05/25 02:14:08;;;;;;;12.03;7.13;;;;;;;;;;4934467;28;20401;-42
2022/05/25 02:16:56;;;;;;;12.27;6.93;;;;;;;;;;4941074;28;20984;-43
2022/05/25 02:19:31;;;;;;;13.00;6.83;;;;;;;;;;4938740;28;20183;-43
2022/05/25 02:22:00;;;;;;;13.53;6.83;;;;;;;;;;4938637;28;20408;-42
2022/05/25 02:24:35;;;;;;;10.70;6.90;;;;;;;;;;4938418;28;20239;-43
2022/05/25 02:27:04;;;;;;;13.37;7.13;;;;;;;;;;4939972;28;20184;-43
2022/05/25 02:29:34;;;;;;;15.43;7.87;;;;;;;;;;4940374;28;20290;-43
2022/05/25 02:32:02;;;;;;;11.10;7.03;;;;;;;;;;4938950;28;20179;-42
2022/05/25 02:34:31;;;;;;;13.30;8.10;;;;;;;;;;4937913;28;20915;-43
2022/05/25 02:36:57;;;;;;;14.47;9.33;;;;;;;;;;4938771;28;20189;-43
2022/05/25 02:39:24;;;;;;;18.07;8.87;;;;;;;;;;4945234;28;20236;-43
2022/05/25 02:41:52;;;;;;;13.50;8.73;;;;;;;;;;4935650;28;20760;-43
2022/05/25 02:44:18;;;;;;;15.53;8.83;;;;;;;;;;4941145;28;20206;-43
2022/05/25 02:46:44;;;;;;;14.07;8.50;;;;;;;;;;4938570;28;20171;-43
2022/05/25 02:49:11;;;;;;;14.60;8.70;;;;;;;;;;4940816;28;20178;-43
2022/05/25 02:51:37;;;;;;;13.97;8.10;;;;;;;;;;4943321;28;20202;-43
2022/05/25 02:54:04;;;;;;;20.00;9.47;;;;;;;;;;4941489;28;20191;-42
2022/05/25 02:56:30;;;;;;;14.07;8.47;;;;;;;;;;4943259;28;20700;-42
2022/05/25 02:58:56;;;;;;;18.90;9.53;;;;;;;;;;4939943;28;20261;-43
2022/05/25 03:01:23;;;;;;;12.33;8.13;;;;;;;;;;4940786;28;20217;-43
2022/05/25 03:03:49;;;;;;;13.77;9.10;;;;;;;;;;4942150;28;20206;-43
2022/05/25 03:06:15;;;;;;;13.83;8.47;;;;;;;;;;4944325;28;20189;-42
2022/05/25 03:08:41;;;;;;;14.30;8.83;;;;;;;;;;4941655;28;20189;-41
2022/05/25 03:11:08;;;;;;;14.03;10.03;;;;;;;;;;4943114;28;20587;-43
2022/05/25 03:13:35;;;;;;;16.20;10.00;;;;;;;;;;4941374;28;20290;-43
2022/05/25 03:16:02;;;;;;;21.57;10.00;;;;;;;;;;4940491;28;20269;-43
2022/05/25 03:18:28;;;;;;;14.20;9.30;;;;;;;;;;4943570;28;20699;-43
2022/05/25 03:20:54;;;;;;;15.90;9.90;;;;;;;;;;4939760;28;20521;-43
2022/05/25 03:23:20;;;;;;;17.43;9.90;;;;;;;;;;4944276;28;20187;-44
2022/05/25 03:25:47;;;;;;;17.23;9.27;;;;;;;;;;4943411;28;20325;-42
2022/05/25 03:28:13;;;;;;;20.23;10.47;;;;;;;;;;4915443;28;20383;-44
2022/05/25 03:30:41;;;;;;;15.17;9.03;;;;;;;;;;4941952;28;20214;-44
2022/05/25 03:33:07;;;;;;;14.83;8.70;;;;;;;;;;4942841;28;20454;-43
2022/05/25 03:35:33;;;;;;;17.63;10.13;;;;;;;;;;4939938;28;20190;-43
2022/05/25 03:37:59;;;;;;;15.57;9.80;;;;;;;;;;4941086;28;20648;-43
2022/05/25 03:40:25;;;;;;;15.43;10.40;;;;;;;;;;4942369;28;20607;-42
2022/05/25 03:42:51;;;;;;;18.57;10.97;;;;;;;;;;4940083;28;20955;-44
2022/05/25 03:45:19;;;;;;;15.40;10.53;;;;;;;;;;4937321;28;20314;-43
2022/05/25 03:47:45;;;;;;;17.47;10.20;;;;;;;;;;4943157;28;20210;-44
2022/05/25 03:50:11;;;;;;;16.10;10.50;;;;;;;;;;4943661;28;20183;-43
2022/05/25 03:52:38;;;;;;;23.13;12.57;;;;;;;;;;4940865;28;20182;-44
2022/05/25 03:55:05;;;;;;;15.43;10.87;;;;;;;;;;4944577;28;20187;-43
2022/05/25 03:57:32;;;;;;;18.27;11.00;;;;;;;;;;4943453;28;20552;-44
2022/05/25 03:59:58;;;;;;;19.00;10.83;;;;;;;;;;4942067;28;20186;-44
2022/05/25 04:02:24;;;;;;;21.33;12.10;;;;;;;;;;4940014;28;20788;-44
2022/05/25 04:05:07;;;;;;;23.80;11.57;;;;;;;;;;4944188;28;20237;-43
2022/05/25 04:07:37;;;;;;;14.60;10.43;;;;;;;;;;4940633;28;20691;-44
2022/05/25 04:10:03;;;;;;;15.60;10.70;;;;;;;;;;4936229;28;20406;-44
2022/05/25 04:12:30;;;;;;;19.27;12.00;;;;;;;;;;4941426;28;20183;-44
2022/05/25 04:14:56;;;;;;;22.20;11.53;;;;;;;;;;4934328;28;20186;-44
2022/05/25 04:17:22;;;;;;;23.07;11.93;;;;;;;;;;4933897;28;20776;-42
2022/05/25 04:19:50;;;;;;;21.27;11.60;;;;;;;;;;4941768;28;20475;-44
2022/05/25 04:22:16;;;;;;;21.80;12.27;;;;;;;;;;4942820;28;20194;-44
2022/05/25 04:24:42;;;;;;;21.37;12.27;;;;;;;;;;4941205;28;20557;-44
2022/05/25 04:27:08;;;;;;;19.40;12.20;;;;;;;;;;4939258;28;20252;-44
2022/05/25 04:29:36;;;;;;;22.77;13.63;;;;;;;;;;4941353;28;20517;-44
2022/05/25 04:32:03;;;;;;;23.57;12.47;;;;;;;;;;4939777;28;20187;-44
2022/05/25 04:34:29;;;;;;;23.53;13.13;;;;;;;;;;4943212;28;20193;-44
2022/05/25 04:37:48;;;;;;;16.90;12.07;;;;;;;;;;4945742;28;20190;-44
2022/05/25 04:39:41;;;;;;;21.33;11.77;;;;;;;;;;4941042;28;20563;-43
2022/05/25 04:42:08;;;;;;;23.47;12.93;;;;;;;;;;4946097;28;20729;-43
2022/05/25 04:44:34;;;;;;;22.50;13.00;;;;;;;;;;4943823;28;20730;-43
2022/05/25 04:47:00;;;;;;;18.57;13.40;;;;;;;;;;4939424;28;20290;-44
2022/05/25 04:49:26;;;;;;;15.13;11.27;;;;;;;;;;4945556;28;20413;-42
2022/05/25 04:51:52;;;;;;;22.97;12.50;;;;;;;;;;4940485;28;20179;-44
2022/05/25 04:54:19;;;;;;;20.77;11.90;;;;;;;;;;4941386;28;20592;-44
2022/05/25 04:59:29;;;;;;;15.77;10.10;;;;;;;;;;4945273;28;20777;-43
2022/05/25 05:01:58;;;;;;;15.73;10.53;;;;;;;;;;4944849;28;20732;-43
2022/05/25 05:04:26;;;;;;;18.27;9.93;;;;;;;;;;4936951;28;20317;-42
2022/05/25 05:06:52;;;;;;;16.47;10.40;;;;;;;;;;4944402;28;20730;-43
2022/05/25 05:09:18;;;;;;;14.17;9.70;;;;;;;;;;4940713;28;20178;-44
2022/05/25 05:11:45;;;;;;;17.87;10.40;;;;;;;;;;4942433;28;20202;-42
2022/05/25 05:14:11;;;;;;;14.00;10.40;;;;;;;;;;4940360;28;20186;-43
2022/05/25 05:16:37;;;;;;;15.47;10.33;;;;;;;;;;4942434;28;20182;-43
2022/05/25 05:19:03;;;;;;;14.70;10.13;;;;;;;;;;4941744;28;20617;-43
2022/05/25 05:21:29;;;;;;;16.50;10.27;;;;;;;;;;4938742;28;20635;-43
2022/05/25 05:23:55;;;;;;;17.60;10.10;;;;;;;;;;4939506;28;20185;-44
2022/05/25 05:26:21;;;;;;;16.20;9.90;;;;;;;;;;4942936;28;20607;-43
2022/05/25 05:28:49;;;;;;;19.17;9.53;;;;;;;;;;4936476;28;20940;-43
2022/05/25 05:31:16;;;;;;;15.47;9.27;;;;;;;;;;4921754;28;20599;-44
2022/05/25 05:33:42;;;;;;;15.07;9.17;;;;;;;;;;4944369;28;20512;-44
2022/05/25 05:36:17;;;;;;;19.03;8.50;;;;;;;;;;4944182;28;20382;-44
2022/05/25 05:38:47;;;;;;;14.50;8.63;;;;;;;;;;4940997;28;20182;-44
2022/05/25 05:41:14;;;;;;;19.40;8.90;;;;;;;;;;4941013;28;20935;-44
2022/05/25 05:43:41;;;;;;;12.80;8.00;;;;;;;;;;4943016;28;20225;-44
2022/05/25 05:46:07;;;;;;;14.33;8.37;;;;;;;;;;4944179;28;20672;-44
2022/05/25 05:48:34;;;;;;;13.00;7.70;;;;;;;;;;4942807;28;20182;-44
2022/05/25 05:51:01;;;;;;;12.30;7.80;;;;;;;;;;4942874;28;20178;-44
2022/05/25 05:53:28;;;;;;;12.53;8.20;;;;;;;;;;4947966;28;20950;-44
2022/05/25 05:55:54;;;;;;;13.67;8.77;;;;;;;;;;4941255;28;20503;-44
2022/05/25 05:58:20;;;;;;;15.07;9.00;;;;;;;;;;4944520;28;20179;-44
2022/05/25 06:00:46;;;;;;;22.20;8.80;;;;;;;;;;4947988;28;20189;-44
2022/05/25 06:03:14;;;;;;;10.27;8.30;;;;;;;;;;4943635;28;20179;-44
2022/05/25 06:05:41;;;;;;;15.00;8.80;;;;;;;;;;4942347;28;20837;-44
2022/05/25 06:08:09;;;;;;;10.83;7.57;;;;;;;;;;4947265;28;20229;-44
2022/05/25 06:10:36;;;;;;;12.30;8.87;;;;;;;;;;4946099;28;20610;-44
2022/05/25 06:13:02;;;;;;;11.80;8.93;;;;;;;;;;4942258;28;20209;-44
2022/05/25 06:20:57;;;;;;;14.90;9.07;;;;;;;;;;4947894;28;20321;-44
2022/05/25 06:23:24;;;;;;;14.90;8.67;;;;;;;;;;4946960;28;20601;-44
2022/05/25 06:25:50;;;;;;;14.67;9.17;;;;;;;;;;4949709;28;20721;-44
2022/05/25 06:28:16;;;;;;;19.70;9.23;;;;;;;;;;4946062;28;20735;-44
2022/05/25 06:30:42;;;;;;;14.70;9.20;;;;;;;;;;4945369;28;20646;-44
2022/05/25 06:33:08;;;;;;;16.80;9.70;;;;;;;;;;4949410;28;20181;-44
2022/05/25 06:35:35;;;;;;;19.93;9.83;;;;;;;;;;4943381;28;20388;-44
2022/05/25 06:38:01;;;;;;;15.70;8.87;;;;;;;;;;4944620;28;20532;-43
2022/05/25 06:40:27;;;;;;;14.07;8.60;;;;;;;;;;4946521;28;20190;-43
2022/05/25 06:42:53;;;;;;;14.07;9.10;;;;;;;;;;4942340;28;20226;-44
2022/05/25 06:45:19;;;;;;;19.60;10.97;;;;;;;;;;4945003;28;20233;-44
2022/05/25 06:47:45;;;;;;;12.47;9.60;;;;;;;;;;4927501;28;20221;-44
2022/05/25 06:50:12;;;;;;;12.80;8.60;;;;;;;;;;4943611;28;20189;-44
2022/05/25 06:52:38;;;;;;;16.40;11.30;;;;;;;;;;4944277;28;20377;-44
2022/05/25 06:55:04;;;;;;;20.43;11.03;;;;;;;;;;4946304;28;20179;-44
2022/05/25 06:57:30;;;;;;;18.60;11.73;;;;;;;;;;4943407;28;20178;-42
2022/05/25 06:59:56;;;;;;;18.67;11.53;;;;;;;;;;4944857;28;20175;-44
2022/05/25 07:02:23;;;;;;;20.80;11.43;;;;;;;;;;4946513;28;20182;-44
2022/05/25 07:04:49;;;;;;;20.43;10.60;;;;;;;;;;4946648;28;20193;-44
2022/05/25 07:07:15;;;;;;;22.30;10.27;;;;;;;;;;4945292;28;20753;-43
2022/05/25 07:09:43;;;;;;;18.07;10.00;;;;;;;;;;4944970;28;20179;-44
2022/05/25 07:12:09;;;;;;;26.57;12.07;;;;;;;;;;4948206;28;20187;-44
2022/05/25 07:14:36;;;;;;;20.17;9.67;;;;;;;;;;4946410;28;20175;-44
2022/05/25 07:17:03;;;;;;;17.80;10.57;;;;;;;;;;4945205;28;20706;-43
2022/05/25 07:19:29;;;;;;;23.00;10.33;;;;;;;;;;4938128;28;20297;-43
2022/05/25 07:21:55;;;;;;;18.20;10.70;;;;;;;;;;4944334;28;21016;-44
2022/05/25 07:24:21;;;;;;;21.87;11.93;;;;;;;;;;4947320;28;20203;-44
2022/05/25 07:26:48;;;;;;;19.20;11.57;;;;;;;;;;4945505;28;20202;-44
2022/05/25 07:29:14;;;;;;;15.53;10.10;;;;;;;;;;4943250;28;20182;-44
2022/05/25 07:31:42;;;;;;;19.97;11.10;;;;;;;;;;4945854;28;20259;-44
2022/05/25 07:34:14;;;;;;;24.67;11.90;;;;;;;;;;4949228;28;21079;-44
2022/05/25 07:36:41;;;;;;;23.67;11.43;;;;;;;;;;4943099;28;20183;-44
2022/05/25 07:39:08;;;;;;;23.83;12.20;;;;;;;;;;4944285;28;20183;-44
2022/05/25 07:41:36;;;;;;;20.57;10.67;;;;;;;;;;4946543;28;20533;-44
2022/05/25 07:44:02;;;;;;;21.73;11.53;;;;;;;;;;4946897;28;20740;-44
2022/05/25 07:46:29;;;;;;;20.13;11.40;;;;;;;;;;4943115;28;20757;-43
2022/05/25 07:48:56;;;;;;;22.27;10.50;;;;;;;;;;4947321;28;20532;-44
2022/05/25 07:51:23;;;;;;;14.63;9.80;;;;;;;;;;4949821;28;20539;-44
2022/05/25 07:53:58;;;;;;;18.87;9.83;;;;;;;;;;4943095;28;20194;-44
2022/05/25 07:56:30;;;;;;;21.27;10.70;;;;;;;;;;4946750;28;20672;-44
2022/05/25 07:58:57;;;;;;;15.20;9.43;;;;;;;;;;4950206;28;20174;-44
2022/05/25 08:05:43;;;;;;;15.17;9.83;;;;;;;;;;4948673;28;20187;-44
2022/05/25 08:06:57;;;;;;;16.97;9.97;;;;;;;;;;4948888;28;20190;-44
2022/05/25 08:09:23;;;;;;;19.20;9.67;;;;;;;;;;4946184;28;20186;-45
2022/05/25 08:11:49;;;;;;;19.80;10.33;;;;;;;;;;4947177;28;20183;-44
2022/05/25 08:14:16;;;;;;;14.70;9.23;;;;;;;;;;4951034;28;20179;-44
2022/05/25 08:16:42;;;;;;;15.80;9.87;;;;;;;;;;4949573;28;20182;-44
2022/05/25 08:19:08;;;;;;;12.27;7.87;;;;;;;;;;4946401;28;20707;-44
2022/05/25 08:21:34;;;;;;;15.77;9.30;;;;;;;;;;4944603;28;20187;-44
2022/05/25 08:24:00;;;;;;;22.23;9.63;;;;;;;;;;4947288;28;20469;-45
2022/05/25 08:26:26;;;;;;;17.13;9.37;;;;;;;;;;4943769;28;20888;-43
2022/05/25 08:28:52;;;;;;;14.30;8.27;;;;;;;;;;4945971;28;20182;-44
2022/05/25 08:31:19;;;;;;;15.83;7.70;;;;;;;;;;4943297;28;20186;-44
2022/05/25 08:33:45;;;;;;;15.27;8.40;;;;;;;;;;4946261;28;20989;-44
2022/05/25 08:36:11;;;;;;;17.33;9.20;;;;;;;;;;4943223;28;20298;-44
2022/05/25 08:38:37;;;;;;;17.80;9.60;;;;;;;;;;4945937;28;20727;-43
2022/05/25 08:41:03;;;;;;;14.87;7.80;;;;;;;;;;4945442;28;20193;-43
2022/05/25 08:43:35;;;;;;;12.20;6.83;;;;;;;;;;4944188;28;20221;-43
2022/05/25 08:46:06;;;;;;;15.03;7.13;;;;;;;;;;4945032;28;20307;-43
2022/05/25 08:48:33;;;;;;;14.07;7.13;;;;;;;;;;4945996;28;20190;-44
2022/05/25 08:51:01;;;;;;;12.73;7.07;;;;;;;;;;4944951;28;20261;-44
2022/05/25 08:53:27;;;;;;;13.73;6.73;;;;;;;;;;4943260;28;20182;-43
2022/05/25 08:56:03;;;;;;;12.57;6.60;;;;;;;;;;4943350;28;20214;-44
2022/05/25 08:58:41;;;;;;;14.27;6.37;;;;;;;;;;4941983;28;20190;-44
2022/05/25 09:01:07;;;;;;;11.77;5.70;;;;;;;;;;4947829;28;20179;-44
2022/05/25 09:03:34;;;;;;;12.33;5.23;;;;;;;;;;4944017;28;20183;-44
2022/05/25 09:06:03;;;;;;;7.60;4.80;;;;;;;;;;4941878;28;20202;-44
2022/05/25 09:08:41;;;;;;;12.07;5.73;;;;;;;;;;4939102;28;20514;-44
2022/05/25 09:11:23;;;;;;;15.03;6.30;;;;;;;;;;4941852;28;20198;-44
2022/05/25 09:14:19;;;;;;;14.27;5.90;;;;;;;;;;4949036;28;20993;-44
2022/05/25 09:16:46;;;;;;;13.57;6.80;;;;;;;;;;4910853;28;20869;-44
2022/05/25 09:19:15;;;;;;;13.13;6.33;;;;;;;;;;4945748;28;20670;-44
2022/05/25 09:21:45;;;;;;;13.30;6.37;;;;;;;;;;4946602;28;20718;-44
2022/05/25 09:24:13;;;;;;;9.50;5.27;;;;;;;;;;4941461;28;20305;-44
2022/05/25 09:26:39;;;;;;;11.00;5.13;;;;;;;;;;4946532;28;20182;-43
2022/05/25 09:29:07;;;;;;;13.27;5.73;;;;;;;;;;4942943;28;20178;-44
2022/05/25 09:31:36;;;;;;;11.67;6.10;;;;;;;;;;4942014;28;20598;-44
2022/05/25 09:34:04;;;;;;;14.87;5.70;;;;;;;;;;4942986;28;20715;-44
2022/05/25 09:36:34;;;;;;;12.57;4.67;;;;;;;;;;4944099;28;20190;-42
2022/05/25 09:39:03;;;;;;;13.47;5.47;;;;;;;;;;4944671;28;20344;-44
2022/05/25 09:41:31;;;;;;;10.73;5.20;;;;;;;;;;4945107;28;20211;-43
2022/05/25 09:43:58;;;;;;;9.10;5.57;;;;;;;;;;4944062;28;20272;-44
2022/05/25 09:46:25;;;;;;;14.00;5.73;;;;;;;;;;4942010;28;20893;-45
2022/05/25 09:48:53;;;;;;;8.57;4.70;;;;;;;;;;4940737;28;20735;-44
2022/05/25 09:51:31;;;;;;;9.13;4.70;;;;;;;;;;4939385;28;20754;-44
2022/05/25 09:54:04;;;;;;;13.20;5.40;;;;;;;;;;4939764;28;20403;-44
2022/05/25 09:56:32;;;;;;;10.30;5.43;;;;;;;;;;4941487;28;20506;-43
2022/05/25 09:59:02;;;;;;;13.43;5.17;;;;;;;;;;4941026;28;20186;-44
2022/05/25 10:01:33;;;;;;;9.27;4.73;;;;;;;;;;4949351;28;20191;-44
2022/05/25 10:04:01;;;;;;;10.30;5.23;;;;;;;;;;4943600;28;20183;-44
2022/05/25 10:06:30;;;;;;;10.10;4.90;;;;;;;;;;4940943;28;20190;-44
2022/05/25 10:09:12;;;;;;;11.60;4.77;;;;;;;;;;4945352;28;20640;-44
2022/05/25 10:11:43;;;;;;;9.37;4.87;;;;;;;;;;4944062;28;20206;-44
2022/05/25 10:14:22;;;;;;;12.50;5.03;;;;;;;;;;4945910;28;20187;-44
2022/05/25 10:16:49;;;;;;;10.53;5.40;;;;;;;;;;4942757;28;20302;-44
2022/05/25 10:19:17;;;;;;;12.13;5.87;;;;;;;;;;4942209;28;20774;-44
2022/05/25 10:21:51;;;;;;;15.53;5.43;;;;;;;;;;4944895;28;20241;-44
2022/05/25 10:24:22;;;;;;;13.37;5.33;;;;;;;;;;4940468;28;20212;-44
2022/05/25 10:26:50;;;;;;;13.37;5.67;;;;;;;;;;4940979;28;20606;-44
2022/05/25 10:36:45;;;;;;;11.13;5.57;;;;;;;;;;4942673;28;20472;-44
2022/05/25 10:38:27;;;;;;;13.13;6.37;;;;;;;;;;4941474;28;20622;-44
2022/05/25 10:40:54;;;;;;;19.17;6.63;;;;;;;;;;4944487;28;20187;-44
2022/05/25 10:43:25;;;;;;;13.70;6.43;;;;;;;;;;4937786;28;20225;-43
2022/05/25 10:45:53;;;;;;;12.13;5.73;;;;;;;;;;4941290;28;20216;-43
2022/05/25 10:48:38;;;;;;;13.73;5.83;;;;;;;;;;4943922;28;20531;-44
2022/05/25 10:51:09;;;;;;;16.67;6.07;;;;;;;;;;4943227;28;20175;-44
2022/05/25 10:56:47;;;;;;;13.60;5.90;;;;;;;;;;4941235;28;20194;-44
2022/05/25 10:59:16;;;;;;;11.57;5.93;;;;;;;;;;4938992;28;20670;-44
2022/05/25 11:02:09;;;;;;;14.67;6.17;;;;;;;;;;4937398;28;20215;-44
2022/05/25 11:05:09;;;;;;;16.03;5.73;;;;;;;;;;4916453;28;20540;-44
2022/05/25 11:07:39;;;;;;;13.03;5.50;;;;;;;;;;4905061;28;20869;-44
2022/05/25 11:10:08;;;;;;;12.17;5.67;;;;;;;;;;4947247;28;20585;-43
2022/05/25 11:12:53;;;;;;;10.37;5.10;;;;;;;;;;4942992;28;20179;-44
2022/05/25 11:15:29;;;;;;;11.43;5.33;;;;;;;;;;4951506;28;20487;-43
2022/05/25 11:17:55;;;;;;;13.57;6.33;;;;;;;;;;4950199;28;20205;-45
2022/05/25 11:20:37;;;;;;;11.40;5.77;;;;;;;;;;4945000;28;20183;-44
2022/05/25 11:23:13;;;;;;;12.27;6.10;;;;;;;;;;4946802;28;20185;-45
2022/05/25 11:25:51;;;;;;;14.20;5.97;;;;;;;;;;4947312;28;20547;-45
2022/05/25 11:28:22;;;;;;;10.90;5.80;;;;;;;;;;4942909;28;20176;-44
2022/05/25 11:30:48;;;;;;;11.47;5.37;;;;;;;;;;4940007;28;20190;-44
2022/05/25 11:33:23;;;;;;;11.73;5.40;;;;;;;;;;4948262;28;20179;-45
2022/05/25 11:36:02;;;;;;;17.03;5.93;;;;;;;;;;4948007;28;20192;-45
2022/05/25 11:38:34;;;;;;;10.13;5.67;;;;;;;;;;4942688;28;20919;-45
2022/05/25 11:41:20;;;;;;;9.27;5.17;;;;;;;;;;4941556;28;20261;-45
2022/05/25 11:44:05;;;;;;;11.73;4.87;;;;;;;;;;4942178;28;20198;-45
2022/05/25 11:46:37;;;;;;;10.20;4.37;;;;;;;;;;4946734;28;20871;-45
2022/05/25 11:49:03;;;;;;;9.10;4.77;;;;;;;;;;4942338;28;20212;-44
2022/05/25 11:51:50;;;;;;;10.67;4.97;;;;;;;;;;4946839;28;20231;-45
2022/05/25 11:54:16;;;;;;;9.13;5.00;;;;;;;;;;4945389;28;20271;-45
2022/05/25 11:56:45;;;;;;;10.70;5.47;;;;;;;;;;4940888;28;20182;-45
2022/05/25 11:59:14;;;;;;;11.60;5.17;;;;;;;;;;4944134;28;20442;-45
2022/05/25 12:01:59;;;;;;;11.03;5.23;;;;;;;;;;4946202;28;20293;-45
2022/05/25 12:04:32;;;;;;;15.30;5.80;;;;;;;;;;4942771;28;20490;-45
2022/05/25 12:07:11;;;;;;;8.97;5.03;;;;;;;;;;4943239;28;20277;-45
2022/05/25 12:10:01;;;;;;;8.77;4.90;;;;;;;;;;4942887;28;20229;-45
2022/05/25 12:12:34;;;;;;;13.13;5.10;;;;;;;;;;4943970;28;20182;-45
2022/05/25 12:15:00;;;;;;;8.83;4.97;;;;;;;;;;4942029;28;20179;-45
2022/05/25 12:17:45;;;;;;;13.43;5.20;;;;;;;;;;4947047;28;20182;-45
2022/05/25 12:20:12;;;;;;;14.97;5.60;;;;;;;;;;4944368;28;21144;-45
2022/05/25 12:22:41;;;;;;;9.83;5.00;;;;;;;;;;4944538;28;20648;-45
2022/05/25 12:25:15;;;;;;;12.43;5.23;;;;;;;;;;4945044;28;20301;-45
2022/05/25 12:27:43;;;;;;;10.23;5.43;;;;;;;;;;4942911;28;20213;-44
2022/05/25 12:30:13;;;;;;;13.93;5.37;;;;;;;;;;4941854;28;20424;-45
2022/05/25 12:32:40;;;;;;;13.00;5.83;;;;;;;;;;4945403;28;20189;-45
2022/05/25 12:35:08;;;;;;;10.70;5.50;;;;;;;;;;4945558;28;20615;-45
2022/05/25 12:37:41;;;;;;;12.03;5.20;;;;;;;;;;4939278;28;20191;-45
2022/05/25 12:40:12;;;;;;;13.90;5.60;;;;;;;;;;4945437;28;20534;-45
2022/05/25 12:42:40;;;;;;;10.93;5.00;;;;;;;;;;4943060;28;20253;-45
2022/05/25 12:50:50;;;;;;;13.97;4.87;;;;;;;;;;4944062;28;20293;-42
2022/05/25 12:53:19;;;;;;;15.73;5.73;;;;;;;;;;4941762;28;20187;-44
2022/05/25 12:55:54;;;;;;;14.33;5.57;;;;;;;;;;4947283;28;20773;-45
2022/05/25 12:58:40;;;;;;;13.93;5.77;;;;;;;;;;4936208;28;20178;-44
2022/05/25 13:01:08;;;;;;;11.90;5.00;;;;;;;;;;4931455;28;20407;-45
2022/05/25 13:03:37;;;;;;;15.93;6.00;;;;;;;;;;4945440;28;20283;-44
2022/05/25 13:06:05;;;;;;;12.53;5.33;;;;;;;;;;4942429;28;20293;-44
2022/05/25 13:08:49;;;;;;;9.67;5.37;;;;;;;;;;4944052;28;20290;-44
2022/05/25 13:11:30;;;;;;;13.20;5.50;;;;;;;;;;4944837;28;20175;-45
2022/05/25 13:13:56;;;;;;;13.77;5.27;;;;;;;;;;4939966;28;20183;-44
2022/05/25 13:19:35;;;;;;;9.53;5.17;;;;;;;;;;4930013;28;20588;-45
2022/05/25 13:22:07;;;;;;;13.23;5.37;;;;;;;;;;4938702;28;20246;-45
2022/05/25 13:24:51;;;;;;;13.13;5.60;;;;;;;;;;4943473;28;20658;-43
2022/05/25 13:27:23;;;;;;;10.20;5.90;;;;;;;;;;4939847;28;20198;-45
2022/05/25 13:29:56;;;;;;;10.93;5.20;;;;;;;;;;4940000;28;20171;-45
2022/05/25 13:32:31;;;;;;;12.07;5.33;;;;;;;;;;4944620;28;20179;-45
2022/05/25 13:34:58;;;;;;;13.67;5.50;;;;;;;;;;4942843;28;20494;-45
2022/05/25 13:37:25;;;;;;;10.17;4.97;;;;;;;;;;4935487;28;20301;-45
2022/05/25 13:39:51;;;;;;;11.83;5.10;;;;;;;;;;4936865;28;21076;-45
2022/05/25 13:42:18;;;;;;;12.00;5.47;;;;;;;;;;4935870;28;20420;-45
2022/05/25 13:44:49;;;;;;;14.40;4.80;;;;;;;;;;4942450;28;20284;-45
2022/05/25 13:47:20;;;;;;;10.40;5.10;;;;;;;;;;4932892;28;20194;-45
2022/05/25 13:49:52;;;;;;;6.73;4.47;;;;;;;;;;4937705;28;20179;-45
2022/05/25 13:52:23;;;;;;;11.23;5.00;;;;;;;;;;4943978;28;20631;-44
2022/05/25 13:54:51;;;;;;;9.37;4.90;;;;;;;;;;4941106;28;20257;-45
2022/05/25 13:57:32;;;;;;;8.57;4.40;;;;;;;;;;4937283;28;20678;-45
2022/05/25 14:00:03;;;;;;;12.43;4.60;;;;;;;;;;4946212;28;20186;-43
2022/05/25 14:02:30;;;;;;;10.40;4.67;;;;;;;;;;4940996;28;21408;-43
2022/05/25 14:04:59;;;;;;;11.93;5.00;;;;;;;;;;4932850;28;20746;-43
2022/05/25 14:07:32;;;;;;;10.63;4.70;;;;;;;;;;4917270;28;20181;-43
2022/05/25 14:11:03;;;;;;;14.10;5.07;;;;;;;;;;4933691;28;20170;-43
2022/05/25 14:13:33;;;;;;;19.43;5.73;;;;;;;;;;4924888;28;20241;-43
2022/05/25 14:16:05;;;;;;;11.97;5.30;;;;;;;;;;4920402;28;20308;-43
2022/05/25 14:18:40;;;;;;;8.47;4.60;;;;;;;;;;4943636;28;20261;-45
2022/05/25 14:21:07;;;;;;;10.77;4.83;;;;;;;;;;4915448;28;20190;-44
2022/05/25 14:23:33;;;;;;;11.40;5.03;;;;;;;;;;4940989;28;20171;-44
2022/05/25 14:26:04;;;;;;;9.27;4.73;;;;;;;;;;4937273;28;20199;-44
2022/05/25 14:28:43;;;;;;;9.47;4.73;;;;;;;;;;4939331;28;20191;-44
2022/05/25 14:31:09;;;;;;;10.73;4.50;;;;;;;;;;4934842;28;20182;-44
2022/05/25 14:33:35;;;;;;;8.33;4.53;;;;;;;;;;4938557;28;20921;-44
2022/05/25 14:36:03;;;;;;;8.70;4.60;;;;;;;;;;4936852;28;21151;-44
2022/05/25 14:38:47;;;;;;;10.13;4.43;;;;;;;;;;4937267;28;20894;-43
2022/05/25 14:41:21;;;;;;;9.50;4.63;;;;;;;;;;4943141;28;20210;-44
2022/05/25 14:43:48;;;;;;;9.83;4.37;;;;;;;;;;4945172;28;20296;-44
2022/05/25 14:46:21;;;;;;;8.07;4.37;;;;;;;;;;4942622;28;20561;-44
2022/05/25 14:48:49;;;;;;;12.93;4.77;;;;;;;;;;4944998;28;20256;-44
2022/05/25 14:51:17;;;;;;;10.97;4.63;;;;;;;;;;4942692;28;20178;-43
2022/05/25 14:53:44;;;;;;;9.17;4.97;;;;;;;;;;4938000;28;20178;-44
2022/05/25 14:56:19;;;;;;;10.73;4.60;;;;;;;;;;4942400;28;20634;-43
2022/05/25 14:58:53;;;;;;;9.07;4.57;;;;;;;;;;4940197;28;21009;-44
2022/05/25 15:01:25;;;;;;;9.73;4.63;;;;;;;;;;4944272;28;20187;-44
2022/05/25 15:03:57;;;;;;;10.83;5.00;;;;;;;;;;4943106;28;20186;-44
2022/05/25 15:06:25;;;;;;;9.90;5.07;;;;;;;;;;4946004;28;20206;-44
2022/05/25 15:08:51;;;;;;;8.10;4.50;;;;;;;;;;4942299;28;20194;-44
2022/05/25 15:11:37;;;;;;;13.53;4.77;;;;;;;;;;4944455;28;20171;-44
2022/05/25 15:20:03;;;;;;;8.43;4.83;;;;;;;;;;4944192;28;20186;-44
2022/05/25 15:22:31;;;;;;;10.27;4.57;;;;;;;;;;4942710;28;20884;-44